createdAt,value
2022-12-06T00:00:05.742Z,4.84
2022-12-06T00:03:00.430Z,4.83
2022-12-06T00:05:28.293Z,4.83
2022-12-06T00:07:56.260Z,4.84
2022-12-06T00:10:24.184Z,4.84
2022-12-06T00:12:52.060Z,4.84
2022-12-06T00:15:19.928Z,4.84
2022-12-06T00:17:47.799Z,4.83
2022-12-06T00:20:15.979Z,4.82
2022-12-06T00:22:44.693Z,4.81
2022-12-06T00:25:12.630Z,4.81
2022-12-06T00:27:40.599Z,4.81
2022-12-06T00:30:09.084Z,4.80
2022-12-06T00:32:37.051Z,4.82
2022-12-06T00:35:05.085Z,4.84
2022-12-06T00:37:32.983Z,4.87
2022-12-06T00:40:01.148Z,4.90
2022-12-06T00:42:29.332Z,4.94
2022-12-06T00:44:57.070Z,4.98
2022-12-06T00:47:24.959Z,5.03
2022-12-06T00:49:53.144Z,5.08
2022-12-06T00:52:21.114Z,5.12
2022-12-06T00:54:48.887Z,5.18
2022-12-06T00:57:16.738Z,5.24
2022-12-06T00:59:44.607Z,5.29
2022-12-06T01:02:12.581Z,5.33
2022-12-06T01:04:40.546Z,5.38
2022-12-06T01:07:08.724Z,5.44
2022-12-06T01:09:36.555Z,5.51
2022-12-06T01:12:04.459Z,5.56
2022-12-06T01:14:32.328Z,5.58
2022-12-06T01:17:00.262Z,5.61
2022-12-06T01:19:28.262Z,5.62
2022-12-06T01:21:56.134Z,5.62
2022-12-06T01:24:23.992Z,5.62
2022-12-06T01:26:51.934Z,5.58
2022-12-06T01:29:19.831Z,5.53
2022-12-06T01:31:47.801Z,5.49
2022-12-06T01:34:17.103Z,5.42
2022-12-06T01:36:45.187Z,5.35
2022-12-06T01:39:13.244Z,5.25
2022-12-06T01:41:41.168Z,5.19
2022-12-06T01:44:29.157Z,5.16
2022-12-06T01:46:57.128Z,5.14
2022-12-06T01:49:29.102Z,5.09
2022-12-06T01:52:06.269Z,5.04
2022-12-06T01:54:34.854Z,4.97
2022-12-06T01:57:05.179Z,4.93
2022-12-06T01:59:33.152Z,4.89
2022-12-06T02:02:01.213Z,4.86
2022-12-06T02:04:30.833Z,4.83
2022-12-06T02:07:00.338Z,4.78
2022-12-06T02:09:29.742Z,4.73
2022-12-06T02:11:58.730Z,4.69
2022-12-06T02:14:29.154Z,4.67
2022-12-06T02:17:05.998Z,4.66
2022-12-06T02:19:46.292Z,4.65
2022-12-06T02:22:26.450Z,4.63
2022-12-06T02:25:12.957Z,4.62
2022-12-06T02:27:55.362Z,4.61
2022-12-06T02:30:29.540Z,4.59
2022-12-06T02:33:05.761Z,4.58
2022-12-06T02:35:37.501Z,4.58
2022-12-06T02:38:13.042Z,4.58
2022-12-06T02:40:43.983Z,4.58
2022-12-06T02:43:14.723Z,4.56
2022-12-06T02:45:45.380Z,4.55
2022-12-06T02:48:14.649Z,4.54
2022-12-06T02:50:47.329Z,4.54
2022-12-06T02:53:18.069Z,4.54
2022-12-06T02:55:46.564Z,4.53
2022-12-06T02:58:14.511Z,4.51
2022-12-06T03:01:02.809Z,4.49
2022-12-06T03:03:46.090Z,4.48
2022-12-06T03:06:26.249Z,4.46
2022-12-06T03:09:03.234Z,4.43
2022-12-06T03:11:40.513Z,4.41
2022-12-06T03:14:14.673Z,4.40
2022-12-06T03:16:48.949Z,4.36
2022-12-06T03:19:20.924Z,4.33
2022-12-06T03:21:55.021Z,4.30
2022-12-06T03:24:24.216Z,4.28
2022-12-06T03:26:54.652Z,4.26
2022-12-06T03:29:24.050Z,4.26
2022-12-06T03:31:53.046Z,4.25
2022-12-06T03:34:22.245Z,4.22
2022-12-06T03:36:51.745Z,4.21
2022-12-06T03:39:24.635Z,4.19
2022-12-06T03:41:55.677Z,4.18
2022-12-06T03:44:24.051Z,4.18
2022-12-06T03:46:59.557Z,4.17
2022-12-06T03:49:36.460Z,4.15
2022-12-06T03:52:05.069Z,4.13
2022-12-06T03:54:33.028Z,4.11
2022-12-06T03:57:01.544Z,4.10
2022-12-06T03:59:29.332Z,4.09
2022-12-06T04:01:57.298Z,4.09
2022-12-06T04:04:25.216Z,4.08
2022-12-06T04:06:53.118Z,4.07
2022-12-06T04:09:39.482Z,4.06
2022-12-06T04:12:27.318Z,4.04
2022-12-06T04:14:55.289Z,4.03
2022-12-06T04:17:42.101Z,4.03
2022-12-06T04:20:10.378Z,4.04
2022-12-06T04:22:57.090Z,4.07
2022-12-06T04:25:24.953Z,4.09
2022-12-06T04:28:25.183Z,4.13
2022-12-06T04:31:11.528Z,4.16
2022-12-06T04:33:58.492Z,4.19
2022-12-06T04:36:45.098Z,4.23
2022-12-06T04:39:17.569Z,4.27
2022-12-06T04:42:07.562Z,4.31
2022-12-06T04:44:35.429Z,4.36
2022-12-06T04:47:03.953Z,4.41
2022-12-06T04:49:32.088Z,4.47
2022-12-06T04:52:00.041Z,4.52
2022-12-06T04:54:30.077Z,4.54
2022-12-06T04:56:58.495Z,4.55
2022-12-06T04:59:27.135Z,4.58
2022-12-06T05:01:55.822Z,4.59
2022-12-06T05:04:24.268Z,4.58
2022-12-06T05:06:52.685Z,4.53
2022-12-06T05:09:20.556Z,4.48
2022-12-06T05:11:48.432Z,4.42
2022-12-06T05:14:16.288Z,4.33
2022-12-06T05:16:44.415Z,4.27
2022-12-06T05:19:13.324Z,4.21
2022-12-06T05:21:41.735Z,4.14
2022-12-06T05:24:09.799Z,4.07
2022-12-06T05:26:37.768Z,4.01
2022-12-06T05:29:05.743Z,3.95
2022-12-06T05:31:33.669Z,3.88
2022-12-06T05:34:01.682Z,3.82
2022-12-06T05:36:29.517Z,3.76
2022-12-06T05:38:57.614Z,3.71
2022-12-06T05:41:25.902Z,3.67
2022-12-06T05:43:53.962Z,3.62
2022-12-06T05:46:21.988Z,3.58
2022-12-06T05:48:49.903Z,3.52
2022-12-06T05:51:17.778Z,3.44
2022-12-06T05:53:45.740Z,3.38
2022-12-06T05:56:13.911Z,3.33
2022-12-06T05:58:41.785Z,3.26
2022-12-06T06:01:10.036Z,3.22
2022-12-06T06:03:43.828Z,3.17
2022-12-06T06:06:15.426Z,3.13
2022-12-06T06:08:43.387Z,3.07
2022-12-06T06:11:11.356Z,3.06
2022-12-06T06:13:39.331Z,3.09
2022-12-06T06:16:08.227Z,3.10
2022-12-06T06:18:36.396Z,3.14
2022-12-06T06:21:04.880Z,3.20
2022-12-06T06:23:32.844Z,3.29
2022-12-06T06:26:00.813Z,3.37
2022-12-06T06:28:28.691Z,3.46
2022-12-06T06:30:56.648Z,3.56
2022-12-06T06:33:24.637Z,3.63
2022-12-06T06:35:52.690Z,3.65
2022-12-06T06:38:20.555Z,3.67
2022-12-06T06:40:48.630Z,3.69
2022-12-06T06:43:20.465Z,3.69
2022-12-06T06:45:52.275Z,3.68
2022-12-06T06:48:20.727Z,3.69
2022-12-06T06:50:53.933Z,3.73
2022-12-06T06:53:27.986Z,3.83
2022-12-06T06:55:56.112Z,4.03
2022-12-06T06:58:24.793Z,4.29
2022-12-06T07:00:54.136Z,4.59
2022-12-06T07:03:22.983Z,4.98
2022-12-06T07:05:51.879Z,5.36
2022-12-06T07:08:19.794Z,5.59
2022-12-06T07:10:49.042Z,5.71
2022-12-06T07:13:17.421Z,5.77
2022-12-06T07:15:45.292Z,5.82
2022-12-06T07:18:13.256Z,5.97
2022-12-06T07:20:41.024Z,6.26
2022-12-06T07:23:08.890Z,6.80
2022-12-06T07:25:36.867Z,7.34
2022-12-06T07:28:04.955Z,7.74
2022-12-06T07:30:33.394Z,8.04
2022-12-06T07:33:01.489Z,8.24
2022-12-06T07:35:48.430Z,8.38
2022-12-06T07:38:17.287Z,8.47
2022-12-06T07:43:52.035Z,8.72
2022-12-06T07:46:20.099Z,8.78
2022-12-06T07:48:48.079Z,8.73
2022-12-06T07:51:16.060Z,8.48
2022-12-06T07:53:43.906Z,8.24
2022-12-06T07:56:11.711Z,8.00
2022-12-06T07:58:39.551Z,7.78
2022-12-06T08:01:07.621Z,7.57
2022-12-06T08:03:35.589Z,7.36
2022-12-06T08:06:03.449Z,7.15
2022-12-06T08:08:31.937Z,6.92
2022-12-06T08:11:01.051Z,6.74
2022-12-06T08:13:29.822Z,6.62
2022-12-06T08:15:57.956Z,6.52
2022-12-06T08:18:26.247Z,6.45
2022-12-06T08:20:54.144Z,6.46
2022-12-06T08:23:22.211Z,6.42
2022-12-06T08:26:00.146Z,6.40
2022-12-06T08:28:29.006Z,6.34
2022-12-06T08:31:02.879Z,6.31
2022-12-06T08:33:32.938Z,6.29
2022-12-06T08:36:00.901Z,6.26
2022-12-06T08:38:28.880Z,6.23
2022-12-06T08:40:56.737Z,6.20
2022-12-06T08:43:24.613Z,6.17
2022-12-06T08:45:52.869Z,6.12
2022-12-06T08:48:21.565Z,6.12
2022-12-06T08:50:49.540Z,6.12
2022-12-06T08:53:17.513Z,6.12
2022-12-06T08:55:58.763Z,6.13
2022-12-06T08:58:30.853Z,6.17
2022-12-06T09:00:58.815Z,6.20
2022-12-06T09:03:26.827Z,6.23
2022-12-06T09:05:54.663Z,6.26
2022-12-06T09:08:22.616Z,6.30
2022-12-06T09:10:50.601Z,6.33
2022-12-06T09:13:18.447Z,6.36
2022-12-06T09:15:46.502Z,6.39
2022-12-06T09:18:14.615Z,6.43
2022-12-06T09:20:42.786Z,6.48
2022-12-06T09:23:10.751Z,6.50
2022-12-06T09:25:41.186Z,6.49
2022-12-06T09:28:09.351Z,6.50
2022-12-06T09:30:37.219Z,6.52
2022-12-06T09:33:05.537Z,6.54
2022-12-06T09:35:33.978Z,6.55
2022-12-06T09:38:03.761Z,6.55
2022-12-06T09:40:37.249Z,6.57
2022-12-06T09:43:14.576Z,6.49
2022-12-06T09:45:54.509Z,6.44
2022-12-06T09:48:22.391Z,6.43
2022-12-06T09:50:55.965Z,6.45
2022-12-06T09:53:42.910Z,6.50
2022-12-06T09:56:10.879Z,6.51
2022-12-06T09:58:44.792Z,6.52
2022-12-06T10:01:25.071Z,6.55
2022-12-06T10:03:53.118Z,6.55
2022-12-06T10:06:22.320Z,6.47
2022-12-06T10:08:50.459Z,6.51
2022-12-06T10:11:37.197Z,6.48
2022-12-06T10:14:10.955Z,6.56
2022-12-06T10:16:57.105Z,6.61
2022-12-06T10:19:40.426Z,6.66
2022-12-06T10:22:18.028Z,6.71
2022-12-06T10:24:45.896Z,6.70
2022-12-06T10:27:39.877Z,6.61
2022-12-06T10:30:11.652Z,6.67
2022-12-06T10:32:40.039Z,6.66
2022-12-06T10:35:07.871Z,6.66
2022-12-06T10:37:48.030Z,6.73
2022-12-06T10:40:23.471Z,6.79
2022-12-06T10:43:09.530Z,6.82
2022-12-06T10:46:09.896Z,6.80
2022-12-06T10:48:57.730Z,6.81
2022-12-06T10:51:30.313Z,6.78
2022-12-06T10:54:02.301Z,6.77
2022-12-06T10:56:33.011Z,6.84
2022-12-06T10:59:00.879Z,6.88
2022-12-06T11:01:32.623Z,6.92
2022-12-06T11:04:04.293Z,6.90
2022-12-06T11:06:34.618Z,6.84
2022-12-06T11:09:11.357Z,6.78
2022-12-06T11:11:39.672Z,6.81
2022-12-06T11:14:26.167Z,6.80
2022-12-06T11:16:57.208Z,6.84
2022-12-06T11:19:43.105Z,6.90
2022-12-06T11:22:14.242Z,6.94
2022-12-06T11:24:51.429Z,6.92
2022-12-06T11:27:24.523Z,6.93
2022-12-06T11:29:53.516Z,6.95
2022-12-06T11:32:21.487Z,6.93
2022-12-06T11:34:51.311Z,6.91
2022-12-06T11:37:21.308Z,6.82
2022-12-06T11:39:52.765Z,6.84
2022-12-06T11:42:25.647Z,6.84
2022-12-06T11:45:29.047Z,6.85
2022-12-06T11:47:59.516Z,6.82
2022-12-06T11:50:32.564Z,6.81
2022-12-06T11:53:04.121Z,6.75
2022-12-06T11:55:37.518Z,6.72
2022-12-06T11:58:11.499Z,6.73
2022-12-06T12:00:55.058Z,6.72
2022-12-06T12:03:33.686Z,6.72
2022-12-06T12:06:17.111Z,6.77
2022-12-06T12:09:02.289Z,6.82
2022-12-06T12:11:32.158Z,6.86
2022-12-06T12:14:04.576Z,6.89
2022-12-06T12:16:49.754Z,6.92
2022-12-06T12:19:36.458Z,6.95
2022-12-06T12:22:22.709Z,6.96
2022-12-06T12:27:40.609Z,6.96
2022-12-06T12:30:17.999Z,6.97
2022-12-06T12:32:46.454Z,6.98
2022-12-06T12:35:20.491Z,6.96
2022-12-06T12:37:51.440Z,6.96
2022-12-06T12:40:39.475Z,6.94
2022-12-06T12:43:13.581Z,6.93
2022-12-06T12:46:02.903Z,6.90
2022-12-06T12:48:31.226Z,6.87
2022-12-06T12:51:00.738Z,6.80
2022-12-06T12:53:35.971Z,6.84
2022-12-06T12:56:13.154Z,6.87
2022-12-06T12:58:46.365Z,6.89
2022-12-06T13:01:32.837Z,6.88
2022-12-06T13:04:17.105Z,6.88
2022-12-06T13:07:02.894Z,6.87
2022-12-06T13:09:30.765Z,6.85
2022-12-06T13:12:03.541Z,6.87
2022-12-06T13:14:32.759Z,6.88
2022-12-06T13:17:03.553Z,6.89
2022-12-06T13:19:34.207Z,6.90
2022-12-06T13:22:04.129Z,6.89
2022-12-06T13:24:33.232Z,6.89
2022-12-06T13:27:04.158Z,6.90
2022-12-06T13:29:44.636Z,6.89
2022-12-06T13:32:22.524Z,6.90
2022-12-06T13:34:52.752Z,6.90
2022-12-06T13:37:34.357Z,6.91
2022-12-06T13:40:03.362Z,6.91
2022-12-06T13:42:34.675Z,6.92
2022-12-06T13:45:03.159Z,6.93
2022-12-06T13:47:31.336Z,6.94
2022-12-06T13:50:17.569Z,6.95
2022-12-06T13:52:45.395Z,6.93
2022-12-06T13:55:25.823Z,6.92
2022-12-06T13:58:00.036Z,6.92
2022-12-06T14:00:28.043Z,6.92
2022-12-06T14:02:57.011Z,6.91
2022-12-06T14:05:43.642Z,6.88
2022-12-06T14:08:12.556Z,6.87
2022-12-06T14:10:40.712Z,6.85
2022-12-06T14:13:15.193Z,6.84
2022-12-06T14:15:52.520Z,6.83
2022-12-06T14:18:23.254Z,6.79
2022-12-06T14:20:52.657Z,6.73
2022-12-06T14:23:24.932Z,6.72
2022-12-06T14:26:10.714Z,6.71
2022-12-06T14:28:38.831Z,6.71
2022-12-06T14:31:08.008Z,6.74
2022-12-06T14:33:39.030Z,6.78
2022-12-06T14:36:17.175Z,6.84
2022-12-06T14:38:51.398Z,6.91
2022-12-06T14:41:38.882Z,6.99
2022-12-06T14:44:16.990Z,7.08
2022-12-06T14:46:46.556Z,7.16
2022-12-06T14:49:35.488Z,7.22
2022-12-06T14:52:16.337Z,7.29
2022-12-06T14:54:45.217Z,7.33
2022-12-06T14:57:24.755Z,7.34
2022-12-06T15:00:26.647Z,7.23
2022-12-06T15:03:02.038Z,7.11
2022-12-06T15:05:35.052Z,7.00
2022-12-06T15:08:21.701Z,6.92
2022-12-06T15:10:55.907Z,6.89
2022-12-06T15:13:24.660Z,6.90
2022-12-06T15:16:01.892Z,6.91
2022-12-06T15:18:32.863Z,6.91
2022-12-06T15:21:01.471Z,6.90
2022-12-06T15:23:30.601Z,6.89
2022-12-06T15:25:58.645Z,6.87
2022-12-06T15:28:26.800Z,6.85
2022-12-06T15:30:54.941Z,6.82
2022-12-06T15:33:24.155Z,6.79
2022-12-06T15:35:52.363Z,6.73
2022-12-06T15:38:20.536Z,6.70
2022-12-06T15:40:49.911Z,6.66
2022-12-06T15:43:29.375Z,6.61
2022-12-06T15:46:00.757Z,6.56
2022-12-06T15:48:30.442Z,6.48
2022-12-06T15:51:00.346Z,6.40
2022-12-06T15:53:29.360Z,6.33
2022-12-06T15:55:57.313Z,6.19
2022-12-06T15:58:26.406Z,6.13
2022-12-06T16:00:55.409Z,6.10
2022-12-06T16:03:23.329Z,6.08
2022-12-06T16:05:51.341Z,6.07
2022-12-06T16:08:19.284Z,6.06
2022-12-06T16:11:11.340Z,6.03
2022-12-06T16:13:35.326Z,6.01
2022-12-06T16:16:04.012Z,6.01
2022-12-06T16:18:32.080Z,6.00
2022-12-06T16:21:00.152Z,6.00
2022-12-06T16:26:41.988Z,5.98
2022-12-06T16:29:15.166Z,5.97
2022-12-06T16:31:43.533Z,5.96
2022-12-06T16:34:11.919Z,5.96
2022-12-06T16:36:57.098Z,5.96
2022-12-06T16:39:25.266Z,5.95
2022-12-06T16:41:53.058Z,5.95
2022-12-06T16:44:21.102Z,5.92
2022-12-06T16:46:49.138Z,5.89
2022-12-06T16:52:09.689Z,5.84
2022-12-06T16:54:41.973Z,5.80
2022-12-06T16:57:13.940Z,5.78
2022-12-06T16:59:44.881Z,5.77
2022-12-06T17:02:23.374Z,5.76
2022-12-06T17:04:52.674Z,5.75
2022-12-06T17:07:20.849Z,5.74
2022-12-06T17:09:48.649Z,5.74
2022-12-06T17:12:16.993Z,5.75
2022-12-06T17:14:45.273Z,5.75
2022-12-06T17:17:14.482Z,5.74
2022-12-06T17:19:42.606Z,5.73
2022-12-06T17:22:11.123Z,5.67
2022-12-06T17:24:39.195Z,5.64
2022-12-06T17:27:09.157Z,5.63
2022-12-06T17:29:37.192Z,5.63
2022-12-06T17:32:05.463Z,5.63
2022-12-06T17:34:33.433Z,5.63
2022-12-06T17:37:01.605Z,5.62
2022-12-06T17:39:29.574Z,5.62
2022-12-06T17:42:16.180Z,5.62
2022-12-06T17:44:44.044Z,5.61
2022-12-06T17:47:12.427Z,5.60
2022-12-06T17:49:40.249Z,5.61
2022-12-06T17:52:08.669Z,5.61
2022-12-06T17:54:36.538Z,5.60
2022-12-06T17:57:04.508Z,5.60
2022-12-06T17:59:33.482Z,5.61
2022-12-06T18:02:18.180Z,5.61
2022-12-06T18:04:47.949Z,5.61
2022-12-06T18:07:16.974Z,5.61
2022-12-06T18:09:45.560Z,5.61
2022-12-06T18:12:14.248Z,5.61
2022-12-06T18:14:42.411Z,5.61
2022-12-06T18:17:10.385Z,5.59
2022-12-06T18:19:40.500Z,5.59
2022-12-06T18:22:08.787Z,5.59
2022-12-06T18:24:36.951Z,5.58
2022-12-06T18:27:05.637Z,5.58
2022-12-06T18:29:34.018Z,5.55
2022-12-06T18:32:02.194Z,5.55
2022-12-06T18:34:30.568Z,5.56
2022-12-06T18:36:58.538Z,5.57
2022-12-06T18:39:26.563Z,5.58
2022-12-06T18:41:55.098Z,5.62
2022-12-06T18:44:23.500Z,5.66
2022-12-06T18:46:51.755Z,5.69
2022-12-06T18:49:19.666Z,5.72
2022-12-06T18:51:47.517Z,5.73
2022-12-06T18:54:15.426Z,5.77
2022-12-06T18:56:43.224Z,5.83
2022-12-06T18:59:11.938Z,5.90
2022-12-06T19:01:41.125Z,5.95
2022-12-06T19:04:13.368Z,6.02
2022-12-06T19:06:43.168Z,6.11
2022-12-06T19:09:12.366Z,6.15
2022-12-06T19:11:41.277Z,6.23
2022-12-06T19:14:09.142Z,6.27
2022-12-06T19:16:47.570Z,6.27
2022-12-06T19:19:22.828Z,6.31
2022-12-06T19:21:51.786Z,6.32
2022-12-06T19:24:22.322Z,6.31
2022-12-06T19:26:51.339Z,6.31
2022-12-06T19:29:19.566Z,6.29
2022-12-06T19:31:47.764Z,6.26
2022-12-06T19:34:20.451Z,6.23
2022-12-06T19:36:49.134Z,6.21
2022-12-06T19:39:18.125Z,6.18
2022-12-06T19:42:04.833Z,6.15
2022-12-06T19:44:32.798Z,6.12
2022-12-06T19:47:00.859Z,6.08
2022-12-06T19:49:29.155Z,6.06
2022-12-06T19:51:57.117Z,6.04
2022-12-06T19:54:26.419Z,6.00
2022-12-06T19:56:57.040Z,5.98
2022-12-06T19:59:26.248Z,5.96
2022-12-06T20:01:54.585Z,5.92
2022-12-06T20:04:23.822Z,5.90
2022-12-06T20:06:52.714Z,5.88
2022-12-06T20:09:22.292Z,5.86
2022-12-06T20:12:02.399Z,5.85
2022-12-06T20:14:44.477Z,5.82
2022-12-06T20:17:14.295Z,5.79
2022-12-06T20:19:51.684Z,5.75
2022-12-06T20:22:22.281Z,5.74
2022-12-06T20:24:50.180Z,5.71
2022-12-06T20:27:18.047Z,5.70
2022-12-06T20:29:45.915Z,5.68
2022-12-06T20:32:14.114Z,5.68
2022-12-06T20:34:42.163Z,5.66
2022-12-06T20:37:10.751Z,5.65
2022-12-06T20:39:38.722Z,5.65
2022-12-06T20:42:07.053Z,5.64
2022-12-06T20:44:35.779Z,5.63
2022-12-06T20:47:04.410Z,5.62
2022-12-06T20:49:32.739Z,5.60
2022-12-06T20:52:03.033Z,5.60
2022-12-06T20:54:31.139Z,5.59
2022-12-06T20:56:59.211Z,5.57
2022-12-06T20:59:27.599Z,5.57
2022-12-06T21:01:55.747Z,5.55
2022-12-06T21:04:23.842Z,5.53
2022-12-06T21:06:51.700Z,5.51
2022-12-06T21:09:19.776Z,5.50
2022-12-06T21:11:48.466Z,5.47
2022-12-06T21:14:16.844Z,5.46
2022-12-06T21:16:44.809Z,5.45
2022-12-06T21:19:14.629Z,5.44
2022-12-06T21:21:46.992Z,5.43
2022-12-06T21:24:16.443Z,5.43
2022-12-06T21:26:44.466Z,5.42
2022-12-06T21:29:17.083Z,5.42
2022-12-06T21:31:45.725Z,5.42
2022-12-06T21:34:15.252Z,5.41
2022-12-06T21:36:43.818Z,5.41
2022-12-06T21:39:13.331Z,5.42
2022-12-06T21:41:41.296Z,5.42
2022-12-06T21:44:09.477Z,5.42
2022-12-06T21:46:37.503Z,5.41
2022-12-06T21:49:05.829Z,5.41
2022-12-06T21:51:33.794Z,5.42
2022-12-06T21:54:01.753Z,5.44
2022-12-06T21:56:30.763Z,5.45
2022-12-06T21:59:02.043Z,5.48
2022-12-06T22:01:31.103Z,5.51
2022-12-06T22:04:01.217Z,5.53
2022-12-06T22:06:29.286Z,5.55
2022-12-06T22:08:58.698Z,5.59
2022-12-06T22:11:26.868Z,5.65
2022-12-06T22:13:56.476Z,5.71
2022-12-06T22:16:24.918Z,5.79
2022-12-06T22:18:55.233Z,5.88
2022-12-06T22:21:25.093Z,5.98
2022-12-06T22:23:53.476Z,6.06
2022-12-06T22:26:22.360Z,6.13
2022-12-06T22:28:50.739Z,6.15
2022-12-06T22:31:20.793Z,6.15
2022-12-06T22:33:49.501Z,6.15
2022-12-06T22:36:18.128Z,6.21
2022-12-06T22:38:49.890Z,6.26
2022-12-06T22:41:18.674Z,6.27
2022-12-06T22:43:49.721Z,6.27
2022-12-06T22:46:18.327Z,6.28
2022-12-06T22:48:46.712Z,6.29
2022-12-06T22:51:16.696Z,6.30
2022-12-06T22:53:45.793Z,6.33
2022-12-06T22:56:14.477Z,6.34
2022-12-06T22:58:42.655Z,6.32
2022-12-06T23:01:16.696Z,6.30
2022-12-06T23:03:46.026Z,6.25
2022-12-06T23:06:14.660Z,6.22
2022-12-06T23:08:42.735Z,6.19
2022-12-06T23:11:13.056Z,6.15
2022-12-06T23:13:41.345Z,6.11
2022-12-06T23:16:11.924Z,6.06
2022-12-06T23:18:40.238Z,6.00
2022-12-06T23:21:12.919Z,5.92
2022-12-06T23:23:42.620Z,5.84
2022-12-06T23:26:12.132Z,5.76
2022-12-06T23:28:40.204Z,5.69
2022-12-06T23:31:10.663Z,5.64
2022-12-06T23:33:38.902Z,5.61
2022-12-06T23:36:08.648Z,5.58
2022-12-06T23:38:36.787Z,5.55
2022-12-06T23:41:04.659Z,5.54
2022-12-06T23:43:33.034Z,5.51
2022-12-06T23:46:06.941Z,5.49
2022-12-06T23:48:36.105Z,5.47
2022-12-06T23:51:08.718Z,5.47
2022-12-06T23:53:36.689Z,5.46
2022-12-06T23:56:06.622Z,5.45
2022-12-06T23:58:35.085Z,5.44
